createdAt,value
2018-06-04T00:05:23.346Z,14.60
2018-06-04T00:07:51.033Z,11.93
2018-06-04T00:10:18.451Z,13.35
2018-06-04T00:12:46.453Z,14.07
2018-06-04T00:15:14.618Z,14.60
2018-06-04T00:17:46.735Z,13.50
2018-06-04T00:20:16.280Z,13.45
2018-06-04T00:22:43.813Z,13.13
2018-06-04T00:34:56.641Z,11.97
2018-06-04T00:37:24.600Z,14.05
2018-06-04T00:39:57.454Z,15.55
2018-06-04T00:42:24.886Z,13.48
2018-06-04T00:54:37.819Z,15.15
2018-06-04T00:57:05.232Z,15.40
2018-06-04T01:09:18.915Z,17.23
2018-06-04T01:11:48.436Z,16.52
2018-06-04T01:14:15.793Z,15.65
2018-06-04T01:26:28.134Z,14.60
2018-06-04T01:28:56.139Z,17.45
2018-06-04T01:31:23.853Z,20.17
2018-06-04T01:33:51.279Z,18.52
2018-06-04T01:36:19.486Z,16.50
2018-06-04T01:38:47.523Z,18.25
2018-06-04T01:41:15.008Z,15.05
2018-06-04T01:43:42.921Z,16.95
2018-06-04T01:46:10.807Z,14.43
2018-06-04T01:48:38.682Z,15.03
2018-06-04T01:51:06.397Z,14.85
2018-06-04T01:53:40.366Z,12.53
2018-06-04T01:56:09.590Z,17.20
2018-06-04T01:58:41.983Z,14.00
2018-06-04T02:01:09.331Z,13.60
2018-06-04T02:03:36.724Z,18.00
2018-06-04T02:06:04.816Z,13.38
2018-06-04T02:08:33.664Z,16.37
2018-06-04T02:11:01.435Z,16.65
2018-06-04T02:13:28.826Z,16.82
2018-06-04T02:16:01.116Z,18.67
2018-06-04T02:18:33.669Z,16.32
2018-06-04T02:21:05.524Z,15.48
2018-06-04T02:23:33.298Z,16.82
2018-06-04T02:26:00.854Z,14.30
2018-06-04T02:28:28.445Z,17.10
2018-06-04T02:31:00.133Z,13.95
2018-06-04T02:33:28.958Z,16.17
2018-06-04T02:36:06.013Z,16.15
2018-06-04T02:38:38.453Z,14.58
2018-06-04T02:50:51.918Z,16.48
2018-06-04T02:53:19.848Z,16.52
2018-06-04T02:55:48.508Z,15.70
2018-06-04T02:58:15.872Z,16.48
2018-06-04T03:00:43.748Z,15.85
2018-06-04T03:03:11.164Z,17.15
2018-06-04T03:05:42.458Z,15.50
2018-06-04T03:08:10.694Z,17.27
2018-06-04T03:10:38.782Z,17.90
2018-06-04T03:13:06.197Z,15.58
2018-06-04T03:15:34.529Z,19.00
2018-06-04T03:18:02.468Z,17.37
2018-06-04T03:20:39.316Z,14.13
2018-06-04T03:32:52.765Z,17.27
2018-06-04T03:35:20.883Z,19.17
2018-06-04T03:37:48.272Z,17.23
2018-06-04T03:40:15.675Z,16.30
2018-06-04T03:42:43.093Z,16.85
2018-06-04T03:45:10.602Z,17.48
2018-06-04T03:47:38.218Z,16.45
2018-06-04T03:50:05.815Z,17.20
2018-06-04T03:52:37.257Z,17.60
2018-06-04T03:55:05.675Z,17.02
2018-06-04T03:57:33.039Z,16.73
2018-06-04T04:00:00.338Z,15.75
2018-06-04T04:02:32.503Z,17.90
2018-06-04T04:04:59.836Z,17.20
2018-06-04T04:07:27.224Z,17.15
2018-06-04T04:09:54.642Z,19.90
2018-06-04T04:12:23.263Z,17.70
2018-06-04T04:14:50.578Z,18.37
2018-06-04T04:17:20.384Z,17.90
2018-06-04T04:19:50.654Z,19.02
2018-06-04T04:22:19.571Z,20.37
2018-06-04T04:24:46.969Z,16.65
2018-06-04T04:27:14.595Z,16.00
2018-06-04T04:29:42.417Z,16.23
2018-06-04T04:32:10.373Z,18.40
2018-06-04T04:34:37.768Z,20.27
2018-06-04T04:37:07.032Z,18.62
2018-06-04T04:39:39.373Z,17.95
2018-06-04T04:42:09.217Z,16.05
2018-06-04T04:44:37.276Z,20.05
2018-06-04T04:47:06.117Z,18.57
2018-06-04T04:49:38.003Z,18.35
2018-06-04T04:52:05.389Z,17.55
2018-06-04T04:54:32.798Z,20.70
2018-06-04T04:57:00.270Z,18.92
2018-06-04T04:59:27.687Z,21.55
2018-06-04T05:01:55.542Z,22.07
2018-06-04T05:04:23.810Z,21.65
2018-06-04T05:06:51.640Z,20.82
2018-06-04T05:09:19.300Z,21.17
2018-06-04T05:11:46.800Z,21.33
2018-06-04T05:14:14.918Z,22.17
2018-06-04T05:16:42.219Z,23.25
2018-06-04T05:19:09.527Z,24.60
2018-06-04T05:21:36.832Z,25.27
2018-06-04T05:24:04.143Z,23.23
2018-06-04T05:26:31.480Z,23.73
2018-06-04T05:28:58.759Z,24.15
2018-06-04T05:31:26.046Z,26.00
2018-06-04T05:33:53.370Z,24.80
2018-06-04T05:36:20.860Z,27.00
2018-06-04T05:38:48.174Z,27.70
2018-06-04T05:41:15.478Z,25.13
2018-06-04T05:43:42.783Z,25.80
2018-06-04T05:46:10.068Z,32.15
2018-06-04T05:48:37.368Z,26.77
2018-06-04T05:51:04.682Z,28.27
2018-06-04T05:53:31.978Z,25.37
2018-06-04T05:55:59.524Z,26.03
2018-06-04T05:58:26.897Z,24.20
2018-06-04T06:00:54.198Z,23.97
2018-06-04T06:03:21.653Z,26.43
2018-06-04T06:05:49.010Z,26.67
2018-06-04T06:08:16.333Z,26.73
2018-06-04T06:10:43.618Z,24.60
2018-06-04T06:13:11.019Z,25.40
2018-06-04T06:15:38.329Z,26.43
2018-06-04T06:18:05.634Z,24.93
2018-06-04T06:20:32.960Z,25.43
2018-06-04T06:23:00.234Z,26.13
2018-06-04T06:25:27.551Z,22.83
2018-06-04T06:27:54.830Z,22.00
2018-06-04T06:30:22.138Z,22.90
2018-06-04T06:32:49.452Z,22.33
2018-06-04T06:35:16.744Z,20.50
2018-06-04T06:37:44.065Z,21.30
2018-06-04T06:40:11.361Z,21.57
2018-06-04T06:42:38.657Z,20.60
2018-06-04T06:45:05.947Z,22.37
2018-06-04T06:47:33.287Z,22.93
2018-06-04T06:50:00.670Z,23.00
2018-06-04T06:52:28.211Z,22.00
2018-06-04T06:54:55.502Z,22.87
2018-06-04T06:57:22.786Z,23.50
2018-06-04T06:59:50.088Z,22.40
2018-06-04T07:02:17.405Z,22.80
2018-06-04T07:04:44.699Z,23.67
2018-06-04T07:07:12.005Z,20.93
2018-06-04T07:09:39.342Z,23.07
2018-06-04T07:12:06.654Z,21.73
2018-06-04T07:14:33.970Z,21.30
2018-06-04T07:17:01.210Z,22.53
2018-06-04T07:19:28.936Z,21.67
2018-06-04T07:21:56.258Z,22.40
2018-06-04T07:24:23.539Z,21.23
2018-06-04T07:26:50.965Z,20.83
2018-06-04T07:29:18.231Z,21.07
2018-06-04T07:31:45.547Z,19.40
2018-06-04T07:34:12.798Z,19.40
2018-06-04T07:36:40.089Z,19.63
2018-06-04T07:39:07.897Z,18.73
2018-06-04T07:41:35.187Z,20.50
2018-06-04T07:44:02.527Z,18.50
2018-06-04T07:46:29.802Z,17.00
2018-06-04T07:48:57.202Z,18.23
2018-06-04T07:51:24.487Z,18.23
2018-06-04T07:53:51.791Z,19.40
2018-06-04T07:56:19.115Z,18.97
2018-06-04T07:58:46.434Z,18.93
2018-06-04T08:01:13.739Z,18.37
2018-06-04T08:03:41.036Z,19.50
2018-06-04T08:06:08.381Z,18.33
2018-06-04T08:08:35.624Z,17.40
2018-06-04T08:11:02.964Z,16.80
2018-06-04T08:13:30.224Z,19.60
2018-06-04T08:15:57.515Z,17.10
2018-06-04T08:18:24.810Z,17.70
2018-06-04T08:20:52.115Z,16.17
2018-06-04T08:23:19.446Z,18.03
2018-06-04T08:25:46.675Z,16.67
2018-06-04T08:28:13.943Z,16.47
2018-06-04T08:30:41.259Z,17.60
2018-06-04T08:33:08.543Z,16.50
2018-06-04T08:35:35.990Z,14.77
2018-06-04T08:38:03.964Z,16.70
2018-06-04T08:40:35.075Z,15.40
2018-06-04T08:43:02.734Z,18.03
2018-06-04T08:45:30.466Z,18.60
2018-06-04T08:47:57.851Z,16.30
2018-06-04T08:50:26.020Z,15.10
2018-06-04T08:52:53.405Z,14.67
2018-06-04T08:55:20.697Z,15.97
2018-06-04T08:57:49.988Z,14.70
2018-06-04T09:00:19.603Z,18.00
2018-06-04T09:02:47.279Z,16.90
2018-06-04T09:05:15.415Z,14.73
2018-06-04T09:07:43.517Z,14.03
2018-06-04T09:10:12.459Z,14.40
2018-06-04T09:12:40.110Z,16.03
2018-06-04T09:15:08.506Z,14.07
2018-06-04T09:17:35.793Z,15.80
2018-06-04T09:20:03.172Z,15.00
2018-06-04T09:22:30.423Z,16.97
2018-06-04T09:24:57.709Z,15.97
2018-06-04T09:27:27.450Z,15.30
2018-06-04T09:29:55.998Z,16.47
2018-06-04T09:32:23.976Z,15.80
2018-06-04T09:34:52.154Z,15.77
2018-06-04T09:37:20.231Z,15.47
2018-06-04T09:39:48.182Z,14.40
2018-06-04T09:42:15.463Z,17.60
2018-06-04T09:44:43.495Z,15.90
2018-06-04T09:47:10.783Z,12.07
2018-06-04T09:49:39.758Z,13.80
2018-06-04T09:52:07.047Z,14.40
2018-06-04T09:54:34.322Z,14.40
2018-06-04T09:57:01.622Z,14.00
2018-06-04T09:59:31.335Z,13.10
2018-06-04T10:01:59.208Z,12.77
2018-06-04T10:04:29.781Z,11.07
2018-06-04T10:07:01.990Z,12.17
2018-06-04T10:09:31.457Z,10.30
2018-06-04T10:11:58.912Z,10.03
2018-06-04T10:14:27.543Z,9.07
2018-06-04T10:16:58.036Z,9.37
2018-06-04T10:19:26.091Z,8.10
2018-06-04T10:21:56.487Z,8.30
2018-06-04T10:24:26.916Z,9.17
2018-06-04T10:27:00.642Z,9.23
2018-06-04T10:29:33.309Z,11.50
2018-06-04T10:32:03.375Z,12.40
2018-06-04T10:34:35.748Z,11.97
2018-06-04T10:46:48.507Z,14.87
2018-06-04T10:49:15.902Z,15.50
2018-06-04T10:51:44.303Z,15.00
2018-06-04T10:54:13.832Z,18.43
2018-06-04T10:56:41.199Z,16.50
2018-06-04T10:59:12.667Z,16.10
2018-06-04T11:01:40.620Z,15.70
2018-06-04T11:04:08.073Z,15.10
2018-06-04T11:06:35.486Z,14.10
2018-06-04T11:09:07.667Z,14.90
2018-06-04T11:11:35.113Z,18.00
2018-06-04T11:14:02.507Z,15.67
2018-06-04T11:16:30.394Z,15.50
2018-06-04T11:18:57.829Z,15.37
2018-06-04T11:21:25.109Z,13.97
2018-06-04T11:23:52.477Z,13.03
2018-06-04T11:26:19.780Z,12.37
2018-06-04T11:28:47.200Z,12.20
2018-06-04T11:31:14.545Z,12.60
2018-06-04T11:33:41.999Z,13.13
2018-06-04T11:36:10.198Z,12.40
2018-06-04T11:38:37.691Z,11.80
2018-06-04T11:41:05.768Z,12.00
2018-06-04T11:43:33.196Z,11.40
2018-06-04T11:46:00.978Z,10.37
2018-06-04T11:48:28.605Z,11.50
2018-06-04T11:50:57.753Z,11.00
2018-06-04T11:53:25.241Z,11.33
2018-06-04T11:55:52.777Z,11.23
2018-06-04T11:58:20.172Z,10.93
2018-06-04T12:00:47.724Z,11.27
2018-06-04T12:03:19.182Z,10.73
2018-06-04T12:05:47.032Z,12.00
2018-06-04T12:08:14.339Z,13.80
2018-06-04T12:10:42.534Z,11.23
2018-06-04T12:13:09.832Z,10.67
2018-06-04T12:15:42.185Z,11.10
2018-06-04T12:18:09.678Z,11.77
2018-06-04T12:20:37.018Z,12.90
2018-06-04T12:23:04.311Z,12.70
2018-06-04T12:25:31.663Z,14.30
2018-06-04T12:27:59.691Z,13.67
2018-06-04T12:30:27.123Z,11.87
2018-06-04T12:32:54.662Z,17.90
2018-06-04T12:35:21.985Z,17.43
2018-06-04T12:37:49.270Z,19.87
2018-06-04T12:40:16.681Z,17.93
2018-06-04T12:42:43.981Z,18.00
2018-06-04T12:45:11.322Z,16.87
2018-06-04T12:47:38.648Z,19.00
2018-06-04T12:50:05.993Z,19.60
2018-06-04T12:52:33.295Z,18.30
2018-06-04T12:55:00.612Z,18.50
2018-06-04T12:57:27.916Z,19.80
2018-06-04T12:59:55.235Z,23.50
2018-06-04T13:02:22.604Z,21.47
2018-06-04T13:04:49.970Z,21.67
2018-06-04T13:07:17.261Z,22.00
2018-06-04T13:09:44.546Z,24.53
2018-06-04T13:14:45.484Z,21.40
2018-06-04T13:17:12.937Z,27.40
2018-06-04T13:19:40.246Z,26.90
2018-06-04T13:22:07.558Z,25.57
2018-06-04T13:24:34.879Z,25.70
2018-06-04T13:27:02.247Z,26.27
2018-06-04T13:29:29.553Z,24.23
2018-06-04T13:31:56.952Z,27.63
2018-06-04T13:34:24.261Z,26.87
2018-06-04T13:36:51.582Z,26.10
2018-06-04T13:39:19.089Z,26.50
2018-06-04T13:41:46.454Z,25.27
2018-06-04T13:44:13.749Z,26.10
2018-06-04T13:46:41.008Z,25.90
2018-06-04T13:49:08.295Z,24.87
2018-06-04T13:51:35.622Z,22.23
2018-06-04T13:54:03.344Z,23.53
2018-06-04T13:56:30.651Z,22.50
2018-06-04T13:58:58.003Z,21.23
2018-06-04T14:01:25.306Z,21.90
2018-06-04T14:03:52.623Z,22.80
2018-06-04T14:06:19.926Z,20.87
2018-06-04T14:08:47.235Z,21.17
2018-06-04T14:11:14.531Z,21.37
2018-06-04T14:13:41.852Z,19.90
2018-06-04T14:16:09.186Z,19.20
2018-06-04T14:18:36.542Z,19.37
2018-06-04T14:21:04.062Z,17.43
2018-06-04T14:23:31.388Z,17.77
2018-06-04T14:25:58.769Z,19.03
2018-06-04T14:28:26.050Z,19.40
2018-06-04T14:30:53.360Z,19.97
2018-06-04T14:33:20.689Z,18.90
2018-06-04T14:35:48.078Z,19.73
2018-06-04T14:38:15.383Z,21.63
2018-06-04T14:40:42.931Z,20.57
2018-06-04T14:43:10.314Z,20.40
2018-06-04T14:45:37.672Z,18.40
2018-06-04T14:48:05.272Z,18.50
2018-06-04T14:50:33.650Z,17.90
2018-06-04T14:53:00.973Z,17.67
2018-06-04T14:55:28.449Z,17.57
2018-06-04T14:57:55.781Z,18.07
2018-06-04T15:00:23.102Z,16.27
2018-06-04T15:02:50.460Z,18.87
2018-06-04T15:05:17.805Z,18.80
2018-06-04T15:07:45.172Z,18.47
2018-06-04T15:10:12.515Z,18.90
2018-06-04T15:12:39.883Z,17.23
2018-06-04T15:15:07.359Z,17.83
2018-06-04T15:17:34.912Z,16.90
2018-06-04T15:20:02.320Z,16.47
2018-06-04T15:22:29.653Z,16.50
2018-06-04T15:24:56.975Z,15.27
2018-06-04T15:27:24.352Z,15.47
2018-06-04T15:29:51.726Z,16.43
2018-06-04T15:32:19.167Z,16.87
2018-06-04T15:34:46.451Z,15.80
2018-06-04T15:37:13.730Z,14.43
2018-06-04T15:39:41.105Z,14.00
2018-06-04T15:42:08.430Z,16.03
2018-06-04T15:44:35.813Z,16.50
2018-06-04T15:47:03.234Z,17.60
2018-06-04T15:49:30.594Z,17.07
2018-06-04T15:51:57.891Z,18.37
2018-06-04T15:54:25.192Z,18.17
2018-06-04T15:56:52.515Z,17.43
2018-06-04T15:59:19.917Z,17.27
2018-06-04T16:01:47.224Z,18.00
2018-06-04T16:04:14.597Z,16.90
2018-06-04T16:06:41.905Z,16.87
2018-06-04T16:09:09.322Z,17.27
2018-06-04T16:11:36.671Z,16.47
2018-06-04T16:14:04.066Z,15.20
2018-06-04T16:16:31.383Z,15.83
2018-06-04T16:18:58.753Z,14.47
2018-06-04T16:21:26.079Z,13.90
2018-06-04T16:23:53.395Z,13.03
2018-06-04T16:26:20.712Z,14.37
2018-06-04T16:28:48.201Z,12.87
2018-06-04T16:31:15.807Z,12.10
2018-06-04T16:33:43.102Z,12.33
2018-06-04T16:36:10.449Z,12.37
2018-06-04T16:38:37.809Z,11.90
2018-06-04T16:41:05.178Z,10.93
2018-06-04T16:43:32.567Z,12.23
2018-06-04T16:45:59.931Z,12.10
2018-06-04T16:48:27.234Z,11.13
2018-06-04T16:50:54.582Z,11.00
2018-06-04T16:53:21.943Z,11.10
2018-06-04T16:55:49.308Z,12.30
2018-06-04T16:58:17.704Z,9.23
2018-06-04T17:00:46.276Z,10.00
2018-06-04T17:03:13.629Z,11.07
2018-06-04T17:05:46.297Z,11.10
2018-06-04T17:08:14.385Z,11.50
2018-06-04T17:10:41.989Z,11.30
2018-06-04T17:13:09.383Z,12.63
2018-06-04T17:15:36.856Z,11.13
2018-06-04T17:18:04.862Z,11.80
2018-06-04T17:20:33.344Z,13.23
2018-06-04T17:23:00.965Z,13.33
2018-06-04T17:25:28.325Z,12.47
2018-06-04T17:27:56.677Z,16.23
2018-06-04T17:30:28.939Z,14.70
2018-06-04T17:42:47.841Z,16.17
2018-06-04T17:45:15.248Z,15.63
2018-06-04T17:47:42.657Z,14.63
2018-06-04T17:50:10.149Z,13.70
2018-06-04T17:52:38.937Z,13.30
2018-06-04T17:55:06.506Z,13.33
2018-06-04T17:57:34.515Z,13.00
2018-06-04T18:00:02.020Z,15.00
2018-06-04T18:02:29.394Z,13.33
2018-06-04T18:04:57.325Z,13.37
2018-06-04T18:07:24.830Z,13.57
2018-06-04T18:09:52.271Z,14.57
2018-06-04T18:12:19.765Z,14.23
2018-06-04T18:14:51.899Z,14.47
2018-06-04T18:17:19.383Z,14.77
2018-06-04T18:19:47.780Z,13.53
2018-06-04T18:22:16.448Z,13.30
2018-06-04T18:24:43.931Z,14.23
2018-06-04T18:27:16.319Z,14.23
2018-06-04T18:29:45.026Z,14.00
2018-06-04T18:32:12.537Z,12.83
2018-06-04T18:34:39.959Z,14.30
2018-06-04T18:37:12.113Z,14.07
2018-06-04T18:39:39.646Z,13.90
2018-06-04T18:42:11.385Z,14.03
2018-06-04T18:44:40.397Z,14.53
2018-06-04T18:47:12.661Z,13.37
2018-06-04T18:49:40.428Z,13.43
2018-06-04T18:52:08.080Z,12.97
2018-06-04T18:54:35.538Z,14.27
2018-06-04T18:57:03.056Z,14.80
2018-06-04T18:59:31.891Z,13.60
2018-06-04T19:02:00.000Z,12.57
2018-06-04T19:04:29.089Z,13.63
2018-06-04T19:07:00.412Z,12.70
2018-06-04T19:09:28.490Z,13.83
2018-06-04T19:11:57.322Z,12.80
2018-06-04T19:14:25.290Z,11.70
2018-06-04T19:16:52.884Z,11.73
2018-06-04T19:19:21.014Z,11.37
2018-06-04T19:21:57.724Z,12.17
2018-06-04T19:24:25.770Z,12.27
2018-06-04T19:26:53.382Z,13.03
2018-06-04T19:29:21.664Z,12.67
2018-06-04T19:31:49.250Z,13.63
2018-06-04T19:34:17.560Z,12.23
2018-06-04T19:36:47.832Z,14.60
2018-06-04T19:39:20.759Z,14.17
2018-06-04T19:51:34.986Z,16.10
2018-06-04T19:54:03.055Z,17.07
2018-06-04T19:56:30.812Z,15.20
2018-06-04T19:58:58.240Z,16.60
2018-06-04T20:01:25.721Z,14.87
2018-06-04T20:03:53.218Z,16.20
2018-06-04T20:06:21.741Z,14.95
2018-06-04T20:08:49.396Z,15.60
2018-06-04T20:11:17.049Z,15.98
2018-06-04T20:13:44.767Z,17.77
2018-06-04T20:16:12.565Z,15.75
2018-06-04T20:18:41.775Z,17.45
2018-06-04T20:21:16.673Z,17.60
2018-06-04T20:23:44.414Z,16.60
2018-06-04T20:39:16.164Z,16.95
2018-06-04T20:41:44.016Z,20.57
2018-06-04T20:53:57.222Z,57.38
2018-06-04T20:56:29.448Z,63.87
2018-06-04T20:58:57.542Z,60.17
2018-06-04T21:01:25.810Z,20.97
2018-06-04T21:03:53.379Z,21.62
2018-06-04T21:06:21.300Z,20.60
2018-06-04T21:08:48.706Z,20.15
2018-06-04T21:11:17.084Z,20.03
2018-06-04T21:13:45.684Z,20.20
2018-06-04T21:16:13.651Z,20.75
2018-06-04T21:18:41.692Z,19.95
2018-06-04T21:21:09.170Z,20.33
2018-06-04T21:23:40.512Z,20.60
2018-06-04T21:26:07.922Z,20.17
2018-06-04T21:28:35.355Z,21.27
2018-06-04T21:31:03.483Z,21.00
2018-06-04T21:33:30.922Z,21.50
2018-06-04T21:36:02.988Z,20.55
2018-06-04T21:38:31.096Z,21.15
2018-06-04T21:40:59.161Z,22.93
2018-06-04T21:43:27.918Z,23.00
2018-06-04T21:45:56.069Z,21.07
2018-06-04T21:48:23.549Z,24.43
2018-06-04T21:50:51.634Z,22.67
2018-06-04T21:53:19.410Z,20.02
2018-06-04T21:55:47.674Z,21.65
2018-06-04T21:58:15.168Z,23.35
2018-06-04T22:00:43.070Z,24.40
2018-06-04T22:03:11.296Z,24.40
2018-06-04T22:05:39.748Z,23.12
2018-06-04T22:08:07.734Z,22.50
2018-06-04T22:10:40.573Z,21.87
2018-06-04T22:13:12.528Z,20.15
2018-06-04T22:15:39.980Z,23.38
2018-06-04T22:18:07.806Z,22.65
2018-06-04T22:20:35.650Z,23.32
2018-06-04T22:23:03.694Z,23.30
2018-06-04T22:38:31.490Z,23.80
2018-06-04T22:40:58.892Z,23.25
2018-06-04T22:43:27.247Z,27.80
2018-06-04T22:46:04.820Z,25.23
2018-06-04T22:48:32.229Z,24.27
2018-06-04T22:50:59.947Z,21.68
2018-06-04T22:53:27.372Z,24.27
2018-06-04T22:55:54.786Z,22.87
2018-06-04T22:58:23.262Z,25.70
2018-06-04T23:00:50.714Z,25.20
2018-06-04T23:03:18.884Z,24.23
2018-06-04T23:05:53.530Z,24.37
2018-06-04T23:08:27.484Z,26.17
2018-06-04T23:10:55.558Z,27.77
2018-06-04T23:13:22.946Z,25.35
2018-06-04T23:15:50.366Z,26.35
2018-06-04T23:18:18.675Z,26.68
2018-06-04T23:20:46.490Z,25.65
2018-06-04T23:32:59.919Z,24.23
2018-06-04T23:35:27.307Z,26.07
2018-06-04T23:37:54.997Z,27.70
2018-06-04T23:40:23.106Z,24.40
2018-06-04T23:42:53.686Z,26.90
2018-06-04T23:45:21.080Z,25.57
2018-06-04T23:47:50.435Z,26.93
2018-06-04T23:50:18.562Z,27.10
2018-06-04T23:52:46.734Z,24.80
2018-06-04T23:55:15.560Z,26.70
2018-06-04T23:57:46.931Z,26.20
